sensor_id;sensor_type;location;lat;lon;timestamp;pressure;altitude;pressure_sealevel;temperature;humidity
70407;BME280;57821;52.202;0.154;2023-09-19T00:00:35;100634.47;;;12.90;81.54
70407;BME280;57821;52.202;0.154;2023-09-19T00:03:02;100626.69;;;12.88;81.59
70407;BME280;57821;52.202;0.154;2023-09-19T00:05:34;100631.00;;;12.89;81.61
70407;BME280;57821;52.202;0.154;2023-09-19T00:08:01;100637.06;;;12.90;81.31
70407;BME280;57821;52.202;0.154;2023-09-19T00:10:34;100619.88;;;12.81;80.90
70407;BME280;57821;52.202;0.154;2023-09-19T00:13:03;100627.56;;;12.87;81.19
70407;BME280;57821;52.202;0.154;2023-09-19T00:15:40;100612.06;;;12.81;81.75
70407;BME280;57821;52.202;0.154;2023-09-19T00:18:07;100624.94;;;12.90;81.52
70407;BME280;57821;52.202;0.154;2023-09-19T00:20:36;100616.28;;;12.88;80.94
70407;BME280;57821;52.202;0.154;2023-09-19T00:23:03;100626.69;;;12.88;80.98
70407;BME280;57821;52.202;0.154;2023-09-19T00:25:31;100626.69;;;12.88;80.98
70407;BME280;57821;52.202;0.154;2023-09-19T00:28:02;100631.00;;;12.89;81.62
70407;BME280;57821;52.202;0.154;2023-09-19T00:30:28;100630.16;;;12.87;81.27
70407;BME280;57821;52.202;0.154;2023-09-19T00:32:55;100631.94;;;12.85;80.71
70407;BME280;57821;52.202;0.154;2023-09-19T00:35:22;100638.88;;;12.86;80.72
70407;BME280;57821;52.202;0.154;2023-09-19T00:37:51;100644.97;;;12.85;81.51
70407;BME280;57821;52.202;0.154;2023-09-19T00:40:18;100651.03;;;12.84;81.49
70407;BME280;57821;52.202;0.154;2023-09-19T00:42:46;100648.44;;;12.84;81.37
70407;BME280;57821;52.202;0.154;2023-09-19T00:45:14;100661.44;;;12.84;81.21
70407;BME280;57821;52.202;0.154;2023-09-19T00:47:51;100658.00;;;12.82;81.88
70407;BME280;57821;52.202;0.154;2023-09-19T00:50:21;100657.13;;;12.83;81.33
70407;BME280;57821;52.202;0.154;2023-09-19T00:52:49;100664.06;;;12.84;81.76
70407;BME280;57821;52.202;0.154;2023-09-19T00:55:17;100671.00;;;12.82;81.76
70407;BME280;57821;52.202;0.154;2023-09-19T00:57:46;100659.72;;;12.83;81.87
70407;BME280;57821;52.202;0.154;2023-09-19T01:00:16;100665.81;;;12.82;82.23
70407;BME280;57821;52.202;0.154;2023-09-19T01:02:46;100656.31;;;12.81;81.94
70407;BME280;57821;52.202;0.154;2023-09-19T01:05:14;100658.00;;;12.82;82.33
70407;BME280;57821;52.202;0.154;2023-09-19T01:07:40;100664.94;;;12.82;82.50
70407;BME280;57821;52.202;0.154;2023-09-19T01:10:10;100651.19;;;12.75;82.31
70407;BME280;57821;52.202;0.154;2023-09-19T01:18:02;100660.75;;;12.73;83.56
70407;BME280;57821;52.202;0.154;2023-09-19T01:29:08;100656.34;;;12.78;83.86
70407;BME280;57821;52.202;0.154;2023-09-19T01:31:39;100636.41;;;12.77;83.84
70407;BME280;57821;52.202;0.154;2023-09-19T01:34:09;100645.91;;;12.81;83.67
70407;BME280;57821;52.202;0.154;2023-09-19T01:36:36;100640.69;;;12.81;83.96
70407;BME280;57821;52.202;0.154;2023-09-19T01:39:07;100646.72;;;12.83;83.97
70407;BME280;57821;52.202;0.154;2023-09-19T01:41:58;100640.63;;;12.84;84.06
70407;BME280;57821;52.202;0.154;2023-09-19T01:44:57;100638.91;;;12.83;84.41
70407;BME280;57821;52.202;0.154;2023-09-19T01:47:46;100645.84;;;12.84;84.44
70407;BME280;57821;52.202;0.154;2023-09-19T01:52:49;100645.00;;;12.82;84.30
70407;BME280;57821;52.202;0.154;2023-09-19T01:55:18;100650.94;;;12.90;83.94
70407;BME280;57821;52.202;0.154;2023-09-19T01:57:56;100636.28;;;12.85;84.76
70407;BME280;57821;52.202;0.154;2023-09-19T02:00:25;100645.69;;;12.93;84.81
70407;BME280;57821;52.202;0.154;2023-09-19T02:02:54;100655.25;;;12.93;84.54
70407;BME280;57821;52.202;0.154;2023-09-19T02:05:26;100643.94;;;12.94;84.67
70407;BME280;57821;52.202;0.154;2023-09-19T02:07:54;100652.59;;;12.96;84.62
70407;BME280;57821;52.202;0.154;2023-09-19T02:10:22;100662.13;;;12.97;84.32
70407;BME280;57821;52.202;0.154;2023-09-19T02:12:50;100652.59;;;12.97;84.45
70407;BME280;57821;52.202;0.154;2023-09-19T02:15:18;100664.69;;;13.00;84.56
70407;BME280;57821;52.202;0.154;2023-09-19T02:17:44;100650.81;;;12.99;84.65
70407;BME280;57821;52.202;0.154;2023-09-19T02:20:13;100651.72;;;12.98;84.28
70407;BME280;57821;52.202;0.154;2023-09-19T02:22:41;100653.38;;;13.02;84.95
70407;BME280;57821;52.202;0.154;2023-09-19T02:25:08;100644.69;;;13.02;84.28
70407;BME280;57821;52.202;0.154;2023-09-19T02:27:35;100647.31;;;13.00;85.08
70407;BME280;57821;52.202;0.154;2023-09-19T02:30:03;100650.78;;;13.02;84.24
70407;BME280;57821;52.202;0.154;2023-09-19T02:32:30;100648.16;;;13.02;84.51
70407;BME280;57821;52.202;0.154;2023-09-19T02:34:58;100636.03;;;13.00;84.47
70407;BME280;57821;52.202;0.154;2023-09-19T02:37:27;100649.06;;;13.00;84.65
70407;BME280;57821;52.202;0.154;2023-09-19T02:39:54;100650.81;;;12.99;84.23
70407;BME280;57821;52.202;0.154;2023-09-19T02:42:20;100650.00;;;12.96;85.15
70407;BME280;57821;52.202;0.154;2023-09-19T02:44:48;100650.88;;;12.96;84.70
70407;BME280;57821;52.202;0.154;2023-09-19T02:47:14;100652.63;;;12.94;84.68
70407;BME280;57821;52.202;0.154;2023-09-19T02:49:42;100658.69;;;12.95;84.86
70407;BME280;57821;52.202;0.154;2023-09-19T02:52:09;100654.41;;;12.92;85.46
70407;BME280;57821;52.202;0.154;2023-09-19T02:54:38;100652.69;;;12.91;85.43
70407;BME280;57821;52.202;0.154;2023-09-19T02:57:05;100646.59;;;12.91;85.12
70407;BME280;57821;52.202;0.154;2023-09-19T02:59:33;100644.97;;;12.85;85.48
70407;BME280;57821;52.202;0.154;2023-09-19T03:02:04;100659.63;;;12.89;85.14
70407;BME280;57821;52.202;0.154;2023-09-19T03:04:31;100654.50;;;12.86;85.83
70407;BME280;57821;52.202;0.154;2023-09-19T03:06:59;100656.19;;;12.87;85.58
70407;BME280;57821;52.202;0.154;2023-09-19T03:09:28;100656.16;;;12.89;85.46
70407;BME280;57821;52.202;0.154;2023-09-19T03:11:54;100677.84;;;12.89;85.87
70407;BME280;57821;52.202;0.154;2023-09-19T03:14:21;100663.97;;;12.89;85.52
70407;BME280;57821;52.202;0.154;2023-09-19T03:16:49;100659.63;;;12.89;85.58
70407;BME280;57821;52.202;0.154;2023-09-19T03:19:17;100657.91;;;12.90;86.04
70407;BME280;57821;52.202;0.154;2023-09-19T03:21:44;100655.28;;;12.91;85.79
70407;BME280;57821;52.202;0.154;2023-09-19T03:24:11;100652.69;;;12.91;86.08
70407;BME280;57821;52.202;0.154;2023-09-19T03:26:38;100647.47;;;12.91;85.43
70407;BME280;57821;52.202;0.154;2023-09-19T03:29:05;100645.75;;;12.90;85.23
70407;BME280;57821;52.202;0.154;2023-09-19T03:31:37;100644.00;;;12.92;85.86
70407;BME280;57821;52.202;0.154;2023-09-19T03:34:07;100645.75;;;12.90;85.71
70407;BME280;57821;52.202;0.154;2023-09-19T03:36:34;100644.00;;;12.92;85.76
70407;BME280;57821;52.202;0.154;2023-09-19T03:39:01;100635.34;;;12.90;85.11
70407;BME280;57821;52.202;0.154;2023-09-19T03:41:32;100628.38;;;12.92;85.79
70407;BME280;57821;52.202;0.154;2023-09-19T03:44:00;100622.31;;;12.90;85.88
70407;BME280;57821;52.202;0.154;2023-09-19T03:46:26;100621.44;;;12.91;86.08
70407;BME280;57821;52.202;0.154;2023-09-19T03:48:53;100617.97;;;12.92;85.56
70407;BME280;57821;52.202;0.154;2023-09-19T03:51:22;100598.84;;;12.93;86.03
70407;BME280;57821;52.202;0.154;2023-09-19T03:53:48;100599.69;;;12.95;85.85
70407;BME280;57821;52.202;0.154;2023-09-19T03:56:18;100600.53;;;12.97;86.37
70407;BME280;57821;52.202;0.154;2023-09-19T03:58:45;100597.06;;;12.98;85.53
70407;BME280;57821;52.202;0.154;2023-09-19T04:01:12;100600.47;;;13.00;85.52
70407;BME280;57821;52.202;0.154;2023-09-19T04:03:40;100593.53;;;12.99;85.99
70407;BME280;57821;52.202;0.154;2023-09-19T04:06:14;100582.28;;;12.99;85.70
70407;BME280;57821;52.202;0.154;2023-09-19T04:08:42;100578.78;;;13.01;85.77
70407;BME280;57821;52.202;0.154;2023-09-19T04:11:11;100572.69;;;13.02;85.30
70407;BME280;57821;52.202;0.154;2023-09-19T04:13:38;100577.03;;;13.03;85.25
70407;BME280;57821;52.202;0.154;2023-09-19T04:16:05;100569.22;;;13.03;85.71
70407;BME280;57821;52.202;0.154;2023-09-19T04:18:33;100569.22;;;13.03;85.83
70407;BME280;57821;52.202;0.154;2023-09-19T04:21:05;100553.53;;;13.06;85.10
70407;BME280;57821;52.202;0.154;2023-09-19T04:23:33;100567.38;;;13.08;85.12
70407;BME280;57821;52.202;0.154;2023-09-19T04:25:59;100569.97;;;13.10;85.31
70407;BME280;57821;52.202;0.154;2023-09-19T04:28:26;100582.94;;;13.11;85.20
70407;BME280;57821;52.202;0.154;2023-09-19T04:30:54;100583.84;;;13.12;85.70
70407;BME280;57821;52.202;0.154;2023-09-19T04:33:21;100576.88;;;13.14;84.96
70407;BME280;57821;52.202;0.154;2023-09-19T04:35:49;100578.59;;;13.15;85.17
70407;BME280;57821;52.202;0.154;2023-09-19T04:38:20;100575.09;;;13.16;84.88
70407;BME280;57821;52.202;0.154;2023-09-19T04:40:47;100569.03;;;13.15;85.34
70407;BME280;57821;52.202;0.154;2023-09-19T04:43:13;100576.75;;;13.20;85.13
70407;BME280;57821;52.202;0.154;2023-09-19T04:45:41;100564.63;;;13.19;85.46
70407;BME280;57821;52.202;0.154;2023-09-19T04:48:08;100565.41;;;13.23;85.30
70407;BME280;57821;52.202;0.154;2023-09-19T04:50:35;100549.88;;;13.20;85.46
70407;BME280;57821;52.202;0.154;2023-09-19T04:53:03;100548.03;;;13.25;84.99
70407;BME280;57821;52.202;0.154;2023-09-19T04:55:31;100529.81;;;13.25;84.73
70407;BME280;57821;52.202;0.154;2023-09-19T04:57:59;100529.81;;;13.25;84.88
70407;BME280;57821;52.202;0.154;2023-09-19T05:00:26;100524.56;;;13.28;85.15
70407;BME280;57821;52.202;0.154;2023-09-19T05:02:56;100524.56;;;13.28;85.36
70407;BME280;57821;52.202;0.154;2023-09-19T05:05:24;100527.16;;;13.28;84.88
70407;BME280;57821;52.202;0.154;2023-09-19T05:07:52;100535.78;;;13.30;84.75
70407;BME280;57821;52.202;0.154;2023-09-19T05:10:21;100522.75;;;13.31;84.53
70407;BME280;57821;52.202;0.154;2023-09-19T05:12:48;100521.00;;;13.32;85.08
70407;BME280;57821;52.202;0.154;2023-09-19T05:15:18;100514.91;;;13.33;85.27
70407;BME280;57821;52.202;0.154;2023-09-19T05:17:48;100511.41;;;13.34;84.78
70407;BME280;57821;52.202;0.154;2023-09-19T05:20:21;100521.78;;;13.37;84.54
70407;BME280;57821;52.202;0.154;2023-09-19T05:23:02;100517.44;;;13.37;83.91
70407;BME280;57821;52.202;0.154;2023-09-19T05:25:31;100514.81;;;13.39;85.13
70407;BME280;57821;52.202;0.154;2023-09-19T05:27:59;100515.63;;;13.41;84.59
70407;BME280;57821;52.202;0.154;2023-09-19T05:30:26;100506.91;;;13.42;84.72
70407;BME280;57821;52.202;0.154;2023-09-19T05:32:53;100493.00;;;13.43;84.17
70407;BME280;57821;52.202;0.154;2023-09-19T05:35:21;100493.00;;;13.44;84.74
70407;BME280;57821;52.202;0.154;2023-09-19T05:37:52;100492.91;;;13.47;83.89
70407;BME280;57821;52.202;0.154;2023-09-19T05:40:19;100511.13;;;13.49;84.36
70407;BME280;57821;52.202;0.154;2023-09-19T05:42:46;100502.38;;;13.51;84.56
70407;BME280;57821;52.202;0.154;2023-09-19T05:45:13;100500.63;;;13.53;84.67
70407;BME280;57821;52.202;0.154;2023-09-19T05:47:40;100490.16;;;13.55;84.04
70407;BME280;57821;52.202;0.154;2023-09-19T05:50:12;100491.03;;;13.55;84.15
70407;BME280;57821;52.202;0.154;2023-09-19T05:52:38;100490.06;;;13.61;83.84
70407;BME280;57821;52.202;0.154;2023-09-19T05:55:06;100477.84;;;13.63;84.15
70407;BME280;57821;52.202;0.154;2023-09-19T05:57:34;100484.72;;;13.67;83.70
70407;BME280;57821;52.202;0.154;2023-09-19T06:00:01;100479.44;;;13.70;83.86
70407;BME280;57821;52.202;0.154;2023-09-19T06:02:37;100479.38;;;13.73;84.23
70407;BME280;57821;52.202;0.154;2023-09-19T06:05:05;100474.97;;;13.75;84.22
70407;BME280;57821;52.202;0.154;2023-09-19T06:07:38;100475.78;;;13.79;84.16
70407;BME280;57821;52.202;0.154;2023-09-19T06:10:05;100472.25;;;13.81;84.06
70407;BME280;57821;52.202;0.154;2023-09-19T06:12:32;100473.06;;;13.85;83.93
70407;BME280;57821;52.202;0.154;2023-09-19T06:15:00;100473.81;;;13.90;83.15
70407;BME280;57821;52.202;0.154;2023-09-19T06:17:26;100479.00;;;13.91;83.32
70407;BME280;57821;52.202;0.154;2023-09-19T06:19:55;100487.56;;;13.96;83.57
70407;BME280;57821;52.202;0.154;2023-09-19T06:22:22;100482.28;;;13.99;83.32
70407;BME280;57821;52.202;0.154;2023-09-19T06:24:50;100483.91;;;14.04;83.20
70407;BME280;57821;52.202;0.154;2023-09-19T06:27:17;100456.09;;;14.04;83.17
70407;BME280;57821;52.202;0.154;2023-09-19T06:29:43;100465.59;;;14.08;83.05
70407;BME280;57821;52.202;0.154;2023-09-19T06:32:10;100472.34;;;14.15;83.32
70407;BME280;57821;52.202;0.154;2023-09-19T06:34:37;100454.09;;;14.15;83.24
70407;BME280;57821;52.202;0.154;2023-09-19T06:37:05;100455.66;;;14.24;83.33
70407;BME280;57821;52.202;0.154;2023-09-19T06:39:32;100445.13;;;14.27;82.90
70407;BME280;57821;52.202;0.154;2023-09-19T06:41:59;100439.78;;;14.33;83.78
70407;BME280;57821;52.202;0.154;2023-09-19T06:44:28;100441.47;;;14.37;83.51
70407;BME280;57821;52.202;0.154;2023-09-19T06:46:56;100430.88;;;14.43;83.36
70407;BME280;57821;52.202;0.154;2023-09-19T06:49:22;100426.41;;;14.48;83.78
70407;BME280;57821;52.202;0.154;2023-09-19T06:51:49;100427.16;;;14.53;83.54
70407;BME280;57821;52.202;0.154;2023-09-19T06:54:16;100425.28;;;14.58;83.39
70407;BME280;57821;52.202;0.154;2023-09-19T06:56:44;100423.41;;;14.63;83.81
70407;BME280;57821;52.202;0.154;2023-09-19T06:59:11;100425.06;;;14.67;83.67
70407;BME280;57821;52.202;0.154;2023-09-19T07:01:40;100416.16;;;14.74;83.52
70407;BME280;57821;52.202;0.154;2023-09-19T07:04:08;100405.56;;;14.80;84.02
70407;BME280;57821;52.202;0.154;2023-09-19T07:06:35;100411.47;;;14.87;83.75
70407;BME280;57821;52.202;0.154;2023-09-19T07:09:02;100400.00;;;14.93;83.58
70407;BME280;57821;52.202;0.154;2023-09-19T07:11:29;100395.50;;;14.98;83.46
70407;BME280;57821;52.202;0.154;2023-09-19T07:13:57;100397.06;;;15.05;83.32
70407;BME280;57821;52.202;0.154;2023-09-19T07:16:25;100396.00;;;15.12;83.36
70407;BME280;57821;52.202;0.154;2023-09-19T07:18:56;100389.75;;;15.17;83.38
70407;BME280;57821;52.202;0.154;2023-09-19T07:21:23;100400.03;;;15.24;83.22
70407;BME280;57821;52.202;0.154;2023-09-19T07:23:51;100408.53;;;15.30;82.89
70407;BME280;57821;52.202;0.154;2023-09-19T07:26:18;100400.53;;;15.36;82.82
70407;BME280;57821;52.202;0.154;2023-09-19T07:28:45;100391.81;;;15.37;82.87
70407;BME280;57821;52.202;0.154;2023-09-19T07:31:12;100389.72;;;15.48;82.96
70407;BME280;57821;52.202;0.154;2023-09-19T07:33:40;100378.28;;;15.54;82.91
70407;BME280;57821;52.202;0.154;2023-09-19T07:36:09;100373.72;;;15.60;82.87
70407;BME280;57821;52.202;0.154;2023-09-19T07:38:37;100376.19;;;15.65;82.56
70407;BME280;57821;52.202;0.154;2023-09-19T07:41:04;100371.63;;;15.72;82.44
70407;BME280;57821;52.202;0.154;2023-09-19T07:43:31;100355.75;;;15.78;82.57
70407;BME280;57821;52.202;0.154;2023-09-19T07:46:09;100350.44;;;15.81;82.15
70407;BME280;57821;52.202;0.154;2023-09-19T07:48:36;100343.25;;;15.87;82.23
70407;BME280;57821;52.202;0.154;2023-09-19T07:51:05;100358.78;;;15.92;82.28
70407;BME280;57821;52.202;0.154;2023-09-19T07:53:33;100346.41;;;15.97;82.05
70407;BME280;57821;52.202;0.154;2023-09-19T07:56:05;100331.63;;;15.96;81.67
70407;BME280;57821;52.202;0.154;2023-09-19T07:58:33;100352.22;;;16.07;81.48
70407;BME280;57821;52.202;0.154;2023-09-19T08:01:04;100333.75;;;16.11;81.45
70407;BME280;57821;52.202;0.154;2023-09-19T08:03:31;100328.31;;;16.17;81.20
70407;BME280;57821;52.202;0.154;2023-09-19T08:05:58;100322.03;;;16.23;81.27
70407;BME280;57821;52.202;0.154;2023-09-19T08:08:25;100326.22;;;16.28;80.59
70407;BME280;57821;52.202;0.154;2023-09-19T08:10:56;100312.28;;;16.28;80.76
70407;BME280;57821;52.202;0.154;2023-09-19T08:13:24;100324.06;;;16.39;80.37
70407;BME280;57821;52.202;0.154;2023-09-19T08:15:51;100315.22;;;16.43;80.26
70407;BME280;57821;52.202;0.154;2023-09-19T08:18:20;100335.94;;;16.50;80.03
70407;BME280;57821;52.202;0.154;2023-09-19T08:20:51;100318.31;;;16.55;79.46
70407;BME280;57821;52.202;0.154;2023-09-19T08:23:18;100322.50;;;16.60;79.37
70407;BME280;57821;52.202;0.154;2023-09-19T08:25:47;100325.75;;;16.67;79.49
70407;BME280;57821;52.202;0.154;2023-09-19T08:28:14;100301.88;;;16.76;79.26
70407;BME280;57821;52.202;0.154;2023-09-19T08:30:45;100315.50;;;16.86;78.84
70407;BME280;57821;52.202;0.154;2023-09-19T08:33:12;100315.22;;;16.93;77.76
70407;BME280;57821;52.202;0.154;2023-09-19T08:35:42;100303.63;;;17.00;78.18
70407;BME280;57821;52.202;0.154;2023-09-19T08:38:09;100330.34;;;17.08;77.97
70407;BME280;57821;52.202;0.154;2023-09-19T08:40:38;100314.38;;;17.16;77.40
70407;BME280;57821;52.202;0.154;2023-09-19T08:43:07;100319.31;;;17.23;76.91
70407;BME280;57821;52.202;0.154;2023-09-19T08:45:35;100307.69;;;17.31;77.42
70407;BME280;57821;52.202;0.154;2023-09-19T08:50:49;100300.09;;;17.46;75.99
70407;BME280;57821;52.202;0.154;2023-09-19T08:56:00;100295.19;;;17.59;75.13
70407;BME280;57821;52.202;0.154;2023-09-19T08:58:50;100277.91;;;17.55;74.82
70407;BME280;57821;52.202;0.154;2023-09-19T09:01:20;100282.69;;;17.67;74.35
70407;BME280;57821;52.202;0.154;2023-09-19T09:03:54;100285.97;;;17.72;74.23
70407;BME280;57821;52.202;0.154;2023-09-19T09:06:23;100284.00;;;17.77;74.58
70407;BME280;57821;52.202;0.154;2023-09-19T09:08:51;100275.91;;;17.83;74.63
70407;BME280;57821;52.202;0.154;2023-09-19T09:11:19;100288.75;;;17.89;73.82
70407;BME280;57821;52.202;0.154;2023-09-19T09:13:46;100285.94;;;17.94;73.84
70407;BME280;57821;52.202;0.154;2023-09-19T09:16:14;100274.38;;;17.99;73.18
70407;BME280;57821;52.202;0.154;2023-09-19T09:18:46;100279.41;;;18.04;73.40
70407;BME280;57821;52.202;0.154;2023-09-19T09:21:13;100277.50;;;18.08;73.49
70407;BME280;57821;52.202;0.154;2023-09-19T09:23:41;100275.78;;;18.06;73.26
70407;BME280;57821;52.202;0.154;2023-09-19T09:26:08;100251.22;;;18.09;72.23
70407;BME280;57821;52.202;0.154;2023-09-19T09:28:44;100241.59;;;18.10;72.60
70407;BME280;57821;52.202;0.154;2023-09-19T09:31:24;100249.44;;;18.10;72.53
70407;BME280;57821;52.202;0.154;2023-09-19T09:33:55;100294.81;;;18.12;72.17
70407;BME280;57821;52.202;0.154;2023-09-19T09:36:38;100275.53;;;18.13;72.44
70407;BME280;57821;52.202;0.154;2023-09-19T09:39:07;100254.50;;;18.14;72.13
70407;BME280;57821;52.202;0.154;2023-09-19T09:41:49;100261.41;;;18.17;72.99
70407;BME280;57821;52.202;0.154;2023-09-19T09:44:17;100258.94;;;18.12;72.46
70407;BME280;57821;52.202;0.154;2023-09-19T09:46:48;100252.31;;;18.24;71.81
70407;BME280;57821;52.202;0.154;2023-09-19T09:49:25;100250.34;;;18.29;72.32
70407;BME280;57821;52.202;0.154;2023-09-19T09:52:00;100226.88;;;18.26;72.32
70407;BME280;57821;52.202;0.154;2023-09-19T09:55:01;100232.50;;;18.37;72.16
70407;BME280;57821;52.202;0.154;2023-09-19T09:57:31;100237.22;;;18.49;72.44
70407;BME280;57821;52.202;0.154;2023-09-19T10:00:01;100225.34;;;18.61;71.99
70407;BME280;57821;52.202;0.154;2023-09-19T10:02:40;100218.69;;;18.72;71.88
70407;BME280;57821;52.202;0.154;2023-09-19T10:05:16;100221.03;;;18.78;72.12
70407;BME280;57821;52.202;0.154;2023-09-19T10:07:55;100223.69;;;18.97;71.44
70407;BME280;57821;52.202;0.154;2023-09-19T10:10:37;100211.75;;;19.09;70.85
70407;BME280;57821;52.202;0.154;2023-09-19T10:13:25;100191.41;;;19.12;70.42
70407;BME280;57821;52.202;0.154;2023-09-19T10:15:55;100210.03;;;19.26;70.28
70407;BME280;57821;52.202;0.154;2023-09-19T10:18:24;100216.81;;;19.31;69.00
70407;BME280;57821;52.202;0.154;2023-09-19T10:20:52;100221.16;;;19.32;70.31
70407;BME280;57821;52.202;0.154;2023-09-19T10:23:20;100220.31;;;19.31;69.38
70407;BME280;57821;52.202;0.154;2023-09-19T10:25:50;100229.91;;;19.32;70.01
70407;BME280;57821;52.202;0.154;2023-09-19T10:28:19;100207.22;;;19.29;69.81
70407;BME280;57821;52.202;0.154;2023-09-19T10:30:52;100212.47;;;19.29;69.38
70407;BME280;57821;52.202;0.154;2023-09-19T10:33:21;100215.84;;;19.33;69.74
70407;BME280;57821;52.202;0.154;2023-09-19T10:35:50;100214.13;;;19.32;69.78
70407;BME280;57821;52.202;0.154;2023-09-19T10:38:24;100206.47;;;19.27;69.78
70407;BME280;57821;52.202;0.154;2023-09-19T10:40:53;100221.84;;;19.35;69.32
70407;BME280;57821;52.202;0.154;2023-09-19T10:43:25;100187.84;;;19.32;69.93
70407;BME280;57821;52.202;0.154;2023-09-19T10:45:52;100205.72;;;19.43;69.99
70407;BME280;57821;52.202;0.154;2023-09-19T10:48:20;100223.06;;;19.47;68.85
70407;BME280;57821;52.202;0.154;2023-09-19T10:53:27;100220.38;;;19.48;68.58
70407;BME280;57821;52.202;0.154;2023-09-19T10:55:59;100220.63;;;19.42;69.54
70407;BME280;57821;52.202;0.154;2023-09-19T10:58:31;100230.97;;;19.47;69.31
70407;BME280;57821;52.202;0.154;2023-09-19T11:01:05;100230.03;;;19.48;69.27
70407;BME280;57821;52.202;0.154;2023-09-19T11:03:33;100218.78;;;19.44;69.00
70407;BME280;57821;52.202;0.154;2023-09-19T11:06:29;100219.66;;;19.45;69.25
70407;BME280;57821;52.202;0.154;2023-09-19T11:08:58;100216.81;;;19.49;69.18
70407;BME280;57821;52.202;0.154;2023-09-19T11:11:46;100205.47;;;19.49;70.04
70407;BME280;57821;52.202;0.154;2023-09-19T11:25:43;100216.69;;;19.87;68.32
70407;BME280;57821;52.202;0.154;2023-09-19T11:30:51;100210.66;;;20.02;68.41
70407;BME280;57821;52.202;0.154;2023-09-19T11:33:24;100195.41;;;20.08;68.19
70407;BME280;57821;52.202;0.154;2023-09-19T11:36:04;100210.03;;;20.14;67.90
70407;BME280;57821;52.202;0.154;2023-09-19T11:43:54;100202.75;;;20.19;67.52
70407;BME280;57821;52.202;0.154;2023-09-19T11:49:25;100214.69;;;20.26;67.62
70407;BME280;57821;52.202;0.154;2023-09-19T11:51:53;100213.72;;;20.27;67.30
70407;BME280;57821;52.202;0.154;2023-09-19T11:54:20;100224.25;;;20.27;66.90
70407;BME280;57821;52.202;0.154;2023-09-19T11:56:59;100237.50;;;20.26;66.84
70407;BME280;57821;52.202;0.154;2023-09-19T11:59:27;100221.94;;;20.21;66.61
70407;BME280;57821;52.202;0.154;2023-09-19T12:01:58;100237.72;;;20.21;66.83
70407;BME280;57821;52.202;0.154;2023-09-19T12:04:42;100237.91;;;20.18;67.18
70407;BME280;57821;52.202;0.154;2023-09-19T12:07:15;100241.63;;;20.14;67.40
70407;BME280;57821;52.202;0.154;2023-09-19T12:09:48;100231.09;;;20.14;67.71
70407;BME280;57821;52.202;0.154;2023-09-19T12:14:50;100256.94;;;20.06;67.98
70407;BME280;57821;52.202;0.154;2023-09-19T12:17:17;100260.50;;;20.05;67.41
70407;BME280;57821;52.202;0.154;2023-09-19T12:19:52;100239.69;;;20.00;67.90
70407;BME280;57821;52.202;0.154;2023-09-19T12:22:19;100244.16;;;19.98;68.30
70407;BME280;57821;52.202;0.154;2023-09-19T12:24:49;100239.00;;;19.97;68.67
70407;BME280;57821;52.202;0.154;2023-09-19T12:27:17;100242.56;;;19.96;68.90
70407;BME280;57821;52.202;0.154;2023-09-19T12:29:47;100246.25;;;19.92;69.06
70407;BME280;57821;52.202;0.154;2023-09-19T12:32:34;100257.84;;;19.88;69.23
70407;BME280;57821;52.202;0.154;2023-09-19T12:35:01;100257.09;;;19.86;69.81
70407;BME280;57821;52.202;0.154;2023-09-19T12:37:34;100246.78;;;19.81;69.65
70407;BME280;57821;52.202;0.154;2023-09-19T12:40:08;100240.34;;;19.69;70.12
70407;BME280;57821;52.202;0.154;2023-09-19T12:42:45;100251.50;;;19.75;70.58
70407;BME280;57821;52.202;0.154;2023-09-19T12:45:12;100246.34;;;19.73;70.44
70407;BME280;57821;52.202;0.154;2023-09-19T12:48:20;100259.69;;;19.68;70.93
70407;BME280;57821;52.202;0.154;2023-09-19T12:51:19;100246.75;;;19.64;71.58
70407;BME280;57821;52.202;0.154;2023-09-19T12:53:57;100237.41;;;19.58;71.46
70407;BME280;57821;52.202;0.154;2023-09-19T12:56:24;100241.50;;;19.64;71.12
70407;BME280;57821;52.202;0.154;2023-09-19T12:58:51;100252.88;;;19.64;71.41
70407;BME280;57821;52.202;0.154;2023-09-19T13:01:21;100245.06;;;19.63;71.58
70407;BME280;57821;52.202;0.154;2023-09-19T13:04:17;100238.97;;;19.62;71.35
70407;BME280;57821;52.202;0.154;2023-09-19T13:06:47;100235.31;;;19.65;71.30
70407;BME280;57821;52.202;0.154;2023-09-19T13:09:19;100233.53;;;19.65;71.77
70407;BME280;57821;52.202;0.154;2023-09-19T13:11:47;100242.28;;;19.66;72.01
70407;BME280;57821;52.202;0.154;2023-09-19T13:14:24;100241.44;;;19.65;71.77
70407;BME280;57821;52.202;0.154;2023-09-19T13:19:37;100240.53;;;19.66;72.00
70407;BME280;57821;52.202;0.154;2023-09-19T13:22:42;100242.34;;;19.64;73.16
70407;BME280;57821;52.202;0.154;2023-09-19T13:25:13;100246.75;;;19.64;73.04
70407;BME280;57821;52.202;0.154;2023-09-19T13:27:43;100246.75;;;19.64;73.38
70407;BME280;57821;52.202;0.154;2023-09-19T13:30:12;100236.41;;;19.61;72.96
70407;BME280;57821;52.202;0.154;2023-09-19T13:32:39;100242.66;;;19.58;73.49
70407;BME280;57821;52.202;0.154;2023-09-19T13:35:07;100234.94;;;19.55;73.48
70407;BME280;57821;52.202;0.154;2023-09-19T13:37:39;100234.44;;;19.47;73.43
70407;BME280;57821;52.202;0.154;2023-09-19T13:40:10;100237.78;;;19.51;73.69
70407;BME280;57821;52.202;0.154;2023-09-19T13:42:38;100243.13;;;19.49;74.36
70407;BME280;57821;52.202;0.154;2023-09-19T13:45:05;100252.78;;;19.49;74.36
70407;BME280;57821;52.202;0.154;2023-09-19T13:47:32;100252.84;;;19.47;74.67
70407;BME280;57821;52.202;0.154;2023-09-19T13:50:01;100258.22;;;19.44;74.69
70407;BME280;57821;52.202;0.154;2023-09-19T13:52:29;100241.97;;;19.36;74.54
70407;BME280;57821;52.202;0.154;2023-09-19T13:54:57;100245.22;;;19.41;75.72
70407;BME280;57821;52.202;0.154;2023-09-19T13:57:27;100246.13;;;19.40;75.64